Time;durP1;ratioP1;P1;durP2;ratioP2;P2;SDS_P1;SDS_P2;PMS_P1;PMS_P2;Temp;Humidity;BMP_temperature;BMP_pressure;BME280_temperature;BME280_humidity;BME280_pressure;Samples;Min_cycle;Max_cycle;Signal;HPM_P1;HPM_P2
2022/11/15 00:00:51;;;;;;;28.65;15.57;;;8.70;99.90;;;;;;5041584;28;20025;-39
2022/11/15 00:03:18;;;;;;;25.08;14.50;;;8.70;99.90;;;;;;5043146;28;20025;-40
2022/11/15 00:05:45;;;;;;;26.90;14.70;;;8.70;99.90;;;;;;5041982;28;20096;-39
2022/11/15 00:08:11;;;;;;;22.38;13.52;;;8.70;99.90;;;;;;5042541;28;20028;-36
2022/11/15 00:10:37;;;;;;;22.27;13.05;;;8.70;99.90;;;;;;5042532;28;20035;-38
2022/11/15 00:13:07;;;;;;;20.13;11.77;;;8.80;99.90;;;;;;5041156;28;20492;-37
2022/11/15 00:15:38;;;;;;;22.60;12.88;;;8.80;99.90;;;;;;5042424;28;20082;-40
2022/11/15 00:18:04;;;;;;;20.90;12.82;;;8.80;99.90;;;;;;5042374;28;20484;-40
2022/11/15 00:20:30;;;;;;;20.60;12.13;;;8.80;99.90;;;;;;5041180;28;20025;-41
2022/11/15 00:22:56;;;;;;;20.20;11.40;;;8.80;99.90;;;;;;5042527;28;20052;-38
2022/11/15 00:25:22;;;;;;;19.88;12.35;;;8.90;99.90;;;;;;5042202;28;20488;-40
2022/11/15 00:27:47;;;;;;;20.25;12.38;;;8.90;99.90;;;;;;5042216;28;20029;-38
2022/11/15 00:30:13;;;;;;;20.45;11.98;;;8.90;99.90;;;;;;5042034;28;20602;-39
2022/11/15 00:32:38;;;;;;;19.13;11.45;;;8.90;99.90;;;;;;5042877;28;20093;-41
2022/11/15 00:35:04;;;;;;;19.25;11.68;;;8.90;99.90;;;;;;5042642;28;20465;-40
2022/11/15 00:37:30;;;;;;;21.92;12.73;;;8.90;99.90;;;;;;5042727;28;20503;-36
2022/11/15 00:39:55;;;;;;;18.45;11.85;;;8.90;99.90;;;;;;5042892;28;20461;-40
2022/11/15 00:42:21;;;;;;;19.60;11.93;;;9.00;99.90;;;;;;5042054;28;20465;-38
2022/11/15 00:44:46;;;;;;;17.92;11.73;;;9.00;99.90;;;;;;5042698;28;20032;-39
2022/11/15 00:47:12;;;;;;;20.88;12.40;;;9.00;99.90;;;;;;5041251;28;20029;-39
2022/11/15 00:49:38;;;;;;;18.83;12.60;;;9.00;99.90;;;;;;5041843;28;20071;-39
2022/11/15 00:52:03;;;;;;;18.98;12.02;;;9.00;99.90;;;;;;5041683;28;20086;-40
2022/11/15 00:54:29;;;;;;;19.65;11.63;;;9.00;99.90;;;;;;5041540;28;20095;-40
2022/11/15 00:56:54;;;;;;;18.15;11.75;;;9.00;99.90;;;;;;5042553;28;20468;-40
2022/11/15 00:59:20;;;;;;;20.30;11.68;;;9.10;99.90;;;;;;5045860;28;20041;-39
2022/11/15 01:01:45;;;;;;;18.63;11.13;;;9.10;99.90;;;;;;5044669;28;20025;-39
2022/11/15 01:04:11;;;;;;;17.85;11.35;;;9.10;99.90;;;;;;5045530;28;20248;-40
2022/11/15 01:06:36;;;;;;;15.88;11.60;;;9.10;99.90;;;;;;5045383;28;20021;-39
2022/11/15 01:09:03;;;;;;;18.08;10.70;;;9.10;99.90;;;;;;5044868;28;20704;-39
2022/11/15 01:11:28;;;;;;;18.10;11.50;;;9.10;99.90;;;;;;5045871;28;20017;-39
2022/11/15 01:13:55;;;;;;;15.00;11.20;;;9.10;99.90;;;;;;5045032;28;20386;-40
2022/11/15 01:16:20;;;;;;;15.95;10.98;;;9.10;99.90;;;;;;5045188;28;20059;-39
2022/11/15 01:18:46;;;;;;;16.92;10.50;;;9.10;99.90;;;;;;5046263;28;20354;-39
2022/11/15 01:21:18;;;;;;;14.45;10.38;;;9.10;99.90;;;;;;5045138;28;20476;-39
2022/11/15 01:23:44;;;;;;;15.47;10.67;;;9.20;99.90;;;;;;5043829;28;20532;-39
2022/11/15 01:26:13;;;;;;;15.82;10.85;;;9.20;99.90;;;;;;5045152;28;20362;-39
2022/11/15 01:28:40;;;;;;;15.15;10.50;;;9.20;99.90;;;;;;5045233;28;20123;-39
2022/11/15 01:31:15;;;;;;;16.08;11.32;;;9.20;99.90;;;;;;5044549;28;20704;-41
2022/11/15 01:33:40;;;;;;;14.82;11.32;;;9.20;99.90;;;;;;5045230;28;20092;-40
2022/11/15 01:36:08;;;;;;;15.93;11.18;;;9.20;99.90;;;;;;5045427;28;20100;-40
2022/11/15 01:38:34;;;;;;;15.00;11.27;;;9.20;99.90;;;;;;5044217;28;20116;-39
2022/11/15 01:41:00;;;;;;;16.40;11.10;;;9.30;99.90;;;;;;5045415;28;20074;-40
2022/11/15 01:43:29;;;;;;;16.10;11.32;;;9.30;99.90;;;;;;5044651;28;20037;-39
2022/11/15 01:46:00;;;;;;;17.67;11.45;;;9.30;99.90;;;;;;5044212;28;20021;-39
2022/11/15 01:48:30;;;;;;;18.30;11.60;;;9.40;99.90;;;;;;5044638;28;20032;-41
2022/11/15 01:50:56;;;;;;;15.52;11.00;;;9.40;99.90;;;;;;5044419;28;20028;-39
2022/11/15 01:53:24;;;;;;;16.48;11.20;;;9.40;99.90;;;;;;5044731;28;20563;-40
2022/11/15 01:55:49;;;;;;;15.85;11.07;;;9.40;99.90;;;;;;5045251;28;20090;-41
2022/11/15 01:58:15;;;;;;;14.00;11.38;;;9.40;99.90;;;;;;5044788;28;20117;-40
2022/11/15 02:00:41;;;;;;;16.27;11.48;;;9.40;99.90;;;;;;5044929;28;20123;-36
2022/11/15 02:03:06;;;;;;;18.05;11.57;;;9.50;99.90;;;;;;5044504;28;20021;-39
2022/11/15 02:05:34;;;;;;;15.05;11.52;;;9.50;99.90;;;;;;5043709;28;20040;-41
2022/11/15 02:08:00;;;;;;;16.60;11.55;;;9.50;99.90;;;;;;5044458;28;20032;-41
2022/11/15 02:10:27;;;;;;;15.75;11.38;;;9.50;99.90;;;;;;5043855;28;20013;-38
2022/11/15 02:12:55;;;;;;;16.27;11.50;;;9.50;99.90;;;;;;5043888;28;20068;-39
2022/11/15 02:15:21;;;;;;;15.75;11.05;;;9.50;99.90;;;;;;5044117;28;20021;-38
2022/11/15 02:18:05;;;;;;;15.35;10.95;;;9.50;99.90;;;;;;5045275;28;20022;-39
2022/11/15 02:20:56;;;;;;;14.68;11.88;;;9.60;99.90;;;;;;5044014;28;20036;-39
2022/11/15 02:23:36;;;;;;;13.77;10.82;;;9.60;99.90;;;;;;5044712;28;20045;-40
2022/11/15 02:26:16;;;;;;;16.58;11.38;;;9.60;99.90;;;;;;5041539;28;20029;-38
2022/11/15 02:29:04;;;;;;;14.07;10.57;;;9.60;99.90;;;;;;5045184;28;20037;-37
2022/11/15 02:31:45;;;;;;;16.38;10.70;;;9.60;99.90;;;;;;5033569;28;20025;-39
2022/11/15 02:34:54;;;;;;;13.63;10.10;;;9.70;99.90;;;;;;5043228;28;20038;-40
2022/11/15 02:37:52;;;;;;;12.70;10.13;;;9.70;99.90;;;;;;5038456;28;20040;-40
2022/11/15 02:40:33;;;;;;;12.82;10.10;;;9.70;99.90;;;;;;5042814;28;20029;-41
2022/11/15 02:46:19;;;;;;;13.63;9.75;;;9.70;99.90;;;;;;5043682;28;20039;-34
2022/11/15 02:48:46;;;;;;;14.10;10.63;;;9.80;99.90;;;;;;5023436;28;20029;-40
2022/11/15 02:51:13;;;;;;;13.13;9.90;;;9.80;99.90;;;;;;5040175;28;20025;-38
2022/11/15 02:53:38;;;;;;;15.30;10.95;;;9.80;99.90;;;;;;5043787;28;20083;-40
2022/11/15 02:56:04;;;;;;;12.57;10.45;;;9.80;99.90;;;;;;5043335;28;20824;-40
2022/11/15 02:58:40;;;;;;;13.02;10.43;;;9.90;99.90;;;;;;5043240;28;20033;-39
2022/11/15 03:01:45;;;;;;;14.18;10.85;;;9.90;99.90;;;;;;5042489;28;20059;-40
2022/11/15 03:04:52;;;;;;;12.23;10.32;;;9.90;99.90;;;;;;5022764;28;20034;-40
2022/11/15 03:07:29;;;;;;;14.13;10.07;;;10.00;99.90;;;;;;5033785;28;20124;-38
2022/11/15 03:10:16;;;;;;;13.25;10.30;;;10.00;99.90;;;;;;5042740;28;20151;-40
2022/11/15 03:12:55;;;;;;;12.35;9.43;;;10.00;99.90;;;;;;5043920;28;20091;-40
2022/11/15 03:15:31;;;;;;;12.30;9.10;;;10.00;99.90;;;;;;5043005;28;20020;-41
2022/11/15 03:18:15;;;;;;;12.02;9.32;;;10.00;99.90;;;;;;5043725;28;20033;-40
2022/11/15 03:20:43;;;;;;;12.23;8.98;;;10.10;99.90;;;;;;5043455;28;20044;-39
2022/11/15 03:23:10;;;;;;;11.75;8.88;;;10.10;99.90;;;;;;5042441;28;20044;-40
2022/11/15 03:25:43;;;;;;;12.25;9.10;;;10.10;99.90;;;;;;5043158;28;20033;-39
2022/11/15 03:28:10;;;;;;;;;;;10.20;99.90;;;;;;5042842;28;20530;-40
2022/11/15 03:30:38;;;;;;;11.23;8.05;;;10.20;99.90;;;;;;5042461;28;19908;-39
2022/11/15 03:33:04;;;;;;;11.15;9.45;;;10.20;99.90;;;;;;5042312;28;20053;-38
2022/11/15 03:35:41;;;;;;;13.60;10.05;;;10.30;99.90;;;;;;5043555;28;20096;-40
2022/11/15 03:38:19;;;;;;;11.00;8.48;;;10.30;99.90;;;;;;5042477;28;20876;-39
2022/11/15 03:41:09;;;;;;;12.60;10.27;;;10.30;99.90;;;;;;5041464;28;20059;-37
2022/11/15 03:44:11;;;;;;;10.77;9.10;;;10.40;99.90;;;;;;5039445;28;20041;-39
2022/11/15 03:47:10;;;;;;;12.45;10.30;;;10.40;99.90;;;;;;5030671;28;20797;-40
2022/11/15 03:49:40;;;;;;;12.20;9.38;;;10.50;99.90;;;;;;5035803;28;20080;-39
2022/11/15 03:52:06;;;;;;;10.52;9.43;;;10.50;99.90;;;;;;5041554;28;20037;-39
2022/11/15 03:54:32;;;;;;;13.02;10.15;;;10.60;99.90;;;;;;5043162;28;20040;-41
2022/11/15 03:56:57;;;;;;;12.82;11.20;;;10.60;99.90;;;;;;5042781;28;20790;-37
2022/11/15 03:59:23;;;;;;;15.60;11.00;;;10.60;99.90;;;;;;5041921;28;20400;-35
2022/11/15 04:01:48;;;;;;;13.15;11.25;;;10.70;99.90;;;;;;5043003;28;20120;-41
2022/11/15 04:04:14;;;;;;;12.93;10.00;;;10.70;99.90;;;;;;5041852;28;20087;-37
2022/11/15 04:06:39;;;;;;;11.68;9.13;;;10.80;99.90;;;;;;5042243;28;20025;-40
2022/11/15 04:09:05;;;;;;;10.95;9.07;;;10.80;99.90;;;;;;5042389;28;20522;-38
2022/11/15 04:11:31;;;;;;;13.48;11.23;;;10.80;99.90;;;;;;5042776;28;20689;-40
2022/11/15 04:13:56;;;;;;;11.40;9.65;;;10.90;99.90;;;;;;5042541;28;20370;-40
2022/11/15 04:16:24;;;;;;;14.20;10.48;;;10.90;99.90;;;;;;5043059;28;20029;-39
2022/11/15 04:24:26;;;;;;;10.93;8.95;;;11.00;99.90;;;;;;5040987;28;20086;-39
2022/11/15 04:26:51;;;;;;;12.82;10.05;;;11.00;99.90;;;;;;5041921;28;20033;-39
2022/11/15 04:29:35;;;;;;;12.02;9.75;;;11.00;99.90;;;;;;5041931;28;20126;-40
2022/11/15 04:32:05;;;;;;;11.93;9.50;;;11.00;99.90;;;;;;5023695;28;20128;-38
2022/11/15 04:34:31;;;;;;;10.55;9.15;;;11.10;99.90;;;;;;5041919;28;20116;-40
2022/11/15 04:37:12;;;;;;;11.80;9.70;;;11.10;99.90;;;;;;5046089;28;20040;-37
2022/11/15 04:39:38;;;;;;;12.00;9.18;;;11.10;99.90;;;;;;5046132;28;20029;-39
2022/11/15 04:42:04;;;;;;;13.77;9.68;;;11.10;99.90;;;;;;5046398;28;20124;-39
2022/11/15 04:44:29;;;;;;;10.00;8.90;;;11.10;99.90;;;;;;5045866;28;20111;-39
2022/11/15 04:46:55;;;;;;;12.60;10.00;;;11.20;99.90;;;;;;5045341;28;20029;-38
2022/11/15 04:49:21;;;;;;;9.25;8.02;;;11.20;99.90;;;;;;5045994;28;20027;-41
2022/11/15 04:51:49;;;;;;;10.30;8.40;;;11.20;99.90;;;;;;5045708;28;20033;-41
2022/11/15 04:54:15;;;;;;;12.13;9.77;;;11.20;99.90;;;;;;5044890;28;20032;-40
2022/11/15 04:56:40;;;;;;;12.52;9.98;;;11.20;99.90;;;;;;5046094;28;20021;-40
2022/11/15 04:59:06;;;;;;;12.32;9.85;;;11.20;99.90;;;;;;5045375;28;20577;-40
2022/11/15 05:01:31;;;;;;;11.95;10.55;;;11.20;99.90;;;;;;5045459;28;20025;-40
2022/11/15 05:06:41;;;;;;;12.25;10.95;;;11.30;99.90;;;;;;5035171;28;20082;-41
2022/11/15 05:09:07;;;;;;;12.48;10.90;;;11.30;99.90;;;;;;5044895;28;20029;-39
2022/11/15 05:11:32;;;;;;;12.02;10.48;;;11.30;99.90;;;;;;5046209;28;20032;-40
2022/11/15 05:13:58;;;;;;;11.93;10.15;;;11.40;99.90;;;;;;5045602;28;20092;-41
2022/11/15 05:16:23;;;;;;;12.57;10.43;;;11.40;99.90;;;;;;5044449;28;20029;-40
2022/11/15 05:18:55;;;;;;;9.95;8.82;;;11.40;99.90;;;;;;5045775;28;20756;-37
2022/11/15 05:21:21;;;;;;;11.95;10.70;;;11.40;99.90;;;;;;5045024;28;20025;-40
2022/11/15 05:23:46;;;;;;;13.98;11.20;;;11.40;99.90;;;;;;5044665;28;20055;-41
2022/11/15 05:26:12;;;;;;;12.30;10.35;;;11.40;99.90;;;;;;5045257;28;20033;-40
2022/11/15 05:28:38;;;;;;;13.35;10.65;;;11.50;99.90;;;;;;5045805;28;20029;-40
2022/11/15 05:31:06;;;;;;;13.13;11.20;;;11.50;99.90;;;;;;5044517;28;20028;-39
2022/11/15 05:33:32;;;;;;;13.07;10.35;;;11.50;99.90;;;;;;5045706;28;20053;-41
2022/11/15 05:36:02;;;;;;;13.35;10.10;;;11.50;99.90;;;;;;5045042;28;20025;-39
2022/11/15 05:38:28;;;;;;;10.82;9.52;;;11.50;99.90;;;;;;5045557;28;20111;-40
2022/11/15 05:40:54;;;;;;;14.30;10.50;;;11.50;99.90;;;;;;5045039;28;20047;-40
2022/11/15 05:43:20;;;;;;;10.68;8.68;;;11.50;99.90;;;;;;5043263;28;20103;-40
2022/11/15 05:45:45;;;;;;;13.32;10.45;;;11.60;99.90;;;;;;5044237;28;20013;-38
2022/11/15 05:48:12;;;;;;;12.73;9.93;;;11.60;99.90;;;;;;5044679;28;20112;-39
2022/11/15 05:50:41;;;;;;;13.60;10.25;;;11.60;99.90;;;;;;5044431;28;20021;-40
2022/11/15 05:53:07;;;;;;;13.90;11.23;;;11.60;99.90;;;;;;5044192;28;20051;-40
2022/11/15 05:55:33;;;;;;;14.95;10.70;;;11.60;99.90;;;;;;5044810;28;20021;-40
2022/11/15 05:57:59;;;;;;;13.65;10.77;;;11.60;99.90;;;;;;5044938;28;20029;-39
2022/11/15 06:00:28;;;;;;;15.80;12.43;;;11.60;99.90;;;;;;5045004;28;20489;-39
2022/11/15 06:02:54;;;;;;;13.68;11.07;;;11.60;99.90;;;;;;5045233;28;20056;-36
2022/11/15 06:05:19;;;;;;;15.50;10.85;;;11.70;99.90;;;;;;5043723;28;20758;-40
2022/11/15 06:07:45;;;;;;;14.20;11.07;;;11.70;99.90;;;;;;5044228;28;20036;-39
2022/11/15 06:10:10;;;;;;;14.32;11.00;;;11.70;99.90;;;;;;5044218;28;20070;-43
2022/11/15 06:12:36;;;;;;;15.57;11.85;;;11.70;99.90;;;;;;5043420;28;20036;-39
2022/11/15 06:15:02;;;;;;;14.65;9.57;;;11.70;99.90;;;;;;5044529;28;20024;-40
2022/11/15 06:17:28;;;;;;;11.82;10.25;;;11.70;99.90;;;;;;5044724;28;20504;-41
2022/11/15 06:19:53;;;;;;;11.75;10.52;;;11.70;99.90;;;;;;5043262;28;20481;-38
2022/11/15 06:22:22;;;;;;;11.10;9.93;;;11.70;99.90;;;;;;5046306;28;20666;-39
2022/11/15 06:24:48;;;;;;;14.25;12.05;;;11.70;99.90;;;;;;5051207;28;20033;-39
2022/11/15 06:27:14;;;;;;;15.15;11.77;;;11.70;99.90;;;;;;5043714;28;20013;-41
2022/11/15 06:29:39;;;;;;;14.18;11.15;;;11.70;99.90;;;;;;5044708;28;20079;-39
2022/11/15 06:32:05;;;;;;;11.48;10.02;;;11.80;99.90;;;;;;5043417;28;20060;-40
2022/11/15 06:34:31;;;;;;;11.38;9.57;;;11.70;99.90;;;;;;5044338;28;20580;-39
2022/11/15 06:36:56;;;;;;;10.68;9.23;;;11.80;99.90;;;;;;5042076;28;20036;-40
2022/11/15 06:39:22;;;;;;;11.88;8.90;;;11.80;99.90;;;;;;5043894;28;20017;-41
2022/11/15 06:41:47;;;;;;;9.80;8.70;;;11.80;99.90;;;;;;5044734;28;20027;-37
2022/11/15 06:44:16;;;;;;;10.82;8.75;;;11.80;99.90;;;;;;5043506;28;20024;-40
2022/11/15 06:46:45;;;;;;;12.50;9.65;;;11.80;99.90;;;;;;5043742;28;20032;-41
2022/11/15 06:49:10;;;;;;;13.40;9.90;;;11.90;99.90;;;;;;5043540;28;20025;-41
2022/11/15 06:51:36;;;;;;;12.07;10.57;;;11.90;99.90;;;;;;5044732;28;20028;-41
2022/11/15 06:54:01;;;;;;;8.95;7.93;;;11.90;99.90;;;;;;5043362;28;20770;-40
2022/11/15 06:56:27;;;;;;;11.55;8.77;;;11.90;99.90;;;;;;5040905;28;20157;-40
2022/11/15 06:58:55;;;;;;;12.50;8.98;;;11.90;99.90;;;;;;5042889;28;20037;-40
2022/11/15 07:01:21;;;;;;;11.77;9.00;;;11.90;99.90;;;;;;5041931;28;20028;-41
2022/11/15 07:03:46;;;;;;;9.50;8.57;;;11.90;99.90;;;;;;5042743;28;20025;-40
2022/11/15 07:06:12;;;;;;;9.57;8.40;;;11.90;99.90;;;;;;5042546;28;20032;-39
2022/11/15 07:08:37;;;;;;;10.68;9.55;;;11.90;99.90;;;;;;5042175;28;20491;-39
2022/11/15 07:11:07;;;;;;;11.63;8.70;;;11.90;99.90;;;;;;5042835;28;20033;-39
2022/11/15 07:13:34;;;;;;;10.23;6.97;;;11.90;99.90;;;;;;5042939;28;20037;-39
2022/11/15 07:16:10;;;;;;;9.85;8.38;;;11.90;99.90;;;;;;5042290;28;20512;-38
2022/11/15 07:18:41;;;;;;;11.57;9.30;;;12.00;99.90;;;;;;5043189;28;20108;-38
2022/11/15 07:21:09;;;;;;;9.60;8.52;;;12.00;99.90;;;;;;5043202;28;20025;-43
2022/11/15 07:23:38;;;;;;;11.90;9.27;;;12.00;99.90;;;;;;5042660;28;20032;-41
2022/11/15 07:26:05;;;;;;;12.57;8.65;;;11.90;99.90;;;;;;5042922;28;20032;-40
2022/11/15 07:28:30;;;;;;;12.00;9.45;;;11.90;99.90;;;;;;5042625;28;20052;-40
2022/11/15 07:30:56;;;;;;;10.68;9.20;;;11.90;99.90;;;;;;5042515;28;20504;-41
2022/11/15 07:33:22;;;;;;;9.60;8.60;;;11.90;99.90;;;;;;5041673;28;20068;-41
2022/11/15 07:35:48;;;;;;;11.85;9.18;;;11.90;99.90;;;;;;5042392;28;20044;-41
2022/11/15 07:38:14;;;;;;;8.90;7.63;;;11.90;99.90;;;;;;5042646;28;20036;-40
2022/11/15 07:40:40;;;;;;;9.20;8.20;;;11.90;99.90;;;;;;5042976;28;20403;-39
2022/11/15 07:43:07;;;;;;;12.05;8.90;;;11.90;99.90;;;;;;5042086;28;20025;-40
2022/11/15 07:45:39;;;;;;;10.05;8.55;;;11.90;99.90;;;;;;5039256;28;20067;-41
2022/11/15 07:48:05;;;;;;;8.80;7.83;;;11.90;99.90;;;;;;5041740;28;20074;-40
2022/11/15 07:50:31;;;;;;;11.30;8.43;;;11.90;99.90;;;;;;5040987;28;20021;-42
2022/11/15 07:52:57;;;;;;;10.18;8.40;;;11.90;99.90;;;;;;5042176;28;20075;-41
2022/11/15 07:55:24;;;;;;;8.80;7.57;;;11.90;99.90;;;;;;5041365;28;20787;-40
2022/11/15 07:57:50;;;;;;;8.73;7.82;;;11.90;99.90;;;;;;5041803;28;20028;-41
2022/11/15 08:00:16;;;;;;;8.40;7.60;;;12.00;99.90;;;;;;5042669;28;20031;-39
2022/11/15 08:02:42;;;;;;;8.68;6.93;;;12.00;99.90;;;;;;5042537;28;20047;-40
2022/11/15 08:05:07;;;;;;;8.35;7.45;;;12.10;99.90;;;;;;5041558;28;20028;-37
2022/11/15 08:07:33;;;;;;;8.70;7.75;;;12.10;99.90;;;;;;5042445;28;20025;-40
2022/11/15 08:10:00;;;;;;;12.30;9.65;;;12.10;99.90;;;;;;5042485;28;20094;-39
2022/11/15 08:12:27;;;;;;;12.00;9.80;;;12.10;99.90;;;;;;5042554;28;20033;-40
2022/11/15 08:14:52;;;;;;;9.82;8.65;;;12.10;99.90;;;;;;5042642;28;20047;-41
2022/11/15 08:17:18;;;;;;;9.23;8.20;;;12.10;99.90;;;;;;5042070;28;20467;-41
2022/11/15 08:19:46;;;;;;;8.93;7.00;;;12.10;99.90;;;;;;5042061;28;20774;-41
2022/11/15 08:22:12;;;;;;;10.77;8.20;;;12.10;99.90;;;;;;5041483;28;20637;-38
2022/11/15 08:24:37;;;;;;;13.07;8.45;;;12.20;99.90;;;;;;5041952;28;20143;-39
2022/11/15 08:27:03;;;;;;;9.52;7.72;;;12.20;99.90;;;;;;5042125;28;20091;-42
2022/11/15 08:29:28;;;;;;;10.98;8.13;;;12.20;99.90;;;;;;5042339;28;20747;-41
2022/11/15 08:31:55;;;;;;;9.65;8.13;;;12.20;99.90;;;;;;5040960;28;20555;-41
2022/11/15 08:34:21;;;;;;;10.10;7.55;;;12.20;99.90;;;;;;5042539;28;20033;-42
2022/11/15 08:36:47;;;;;;;9.82;7.75;;;12.20;99.90;;;;;;5042641;28;20446;-41
2022/11/15 08:39:13;;;;;;;7.38;6.43;;;12.20;99.90;;;;;;5041398;28;20071;-41
2022/11/15 08:41:38;;;;;;;7.43;6.43;;;12.20;99.90;;;;;;5042545;28;20041;-40
2022/11/15 08:44:04;;;;;;;9.52;7.90;;;12.30;99.90;;;;;;5042683;28;20799;-41
2022/11/15 08:46:30;;;;;;;9.80;8.52;;;12.30;99.90;;;;;;5041714;28;20108;-38
2022/11/15 08:49:01;;;;;;;8.80;6.75;;;12.30;99.90;;;;;;5042819;28;20025;-39
2022/11/15 08:51:27;;;;;;;8.85;7.55;;;12.30;99.90;;;;;;5042072;28;20029;-39
2022/11/15 08:53:52;;;;;;;12.10;8.48;;;12.30;99.90;;;;;;5041516;28;20523;-40
2022/11/15 08:56:18;;;;;;;8.85;7.93;;;12.40;99.90;;;;;;5042154;28;20025;-40
2022/11/15 08:58:43;;;;;;;10.70;8.32;;;12.40;99.90;;;;;;5042004;28;20043;-40
2022/11/15 09:01:17;;;;;;;8.88;7.28;;;12.50;99.90;;;;;;5041497;28;20370;-40
2022/11/15 09:03:45;;;;;;;8.48;6.97;;;12.50;99.90;;;;;;5042285;28;20073;-38
2022/11/15 09:06:11;;;;;;;10.63;8.32;;;12.50;99.90;;;;;;5041554;28;20028;-40
2022/11/15 09:08:36;;;;;;;13.55;9.02;;;12.50;99.90;;;;;;5041552;28;20025;-38
2022/11/15 09:11:06;;;;;;;10.27;8.32;;;12.50;99.90;;;;;;5042171;28;20048;-39
2022/11/15 09:13:32;;;;;;;10.63;8.02;;;12.60;99.90;;;;;;5042397;28;20041;-40
2022/11/15 09:16:00;;;;;;;8.40;7.47;;;12.60;99.90;;;;;;5041648;28;20036;-38
2022/11/15 09:18:27;;;;;;;9.18;7.50;;;12.60;99.90;;;;;;5043773;28;20025;-38
2022/11/15 09:20:56;;;;;;;8.68;7.55;;;12.60;99.90;;;;;;5045120;28;20033;-35
2022/11/15 09:23:25;;;;;;;14.27;8.52;;;12.60;99.90;;;;;;5045595;28;20025;-38
2022/11/15 09:25:51;;;;;;;7.80;7.00;;;12.60;99.90;;;;;;5045592;28;20033;-40
2022/11/15 09:28:20;;;;;;;7.13;6.43;;;12.60;99.90;;;;;;5044914;28;20031;-41
2022/11/15 09:30:46;;;;;;;10.13;7.43;;;12.70;99.90;;;;;;5046050;28;20035;-42
2022/11/15 09:33:12;;;;;;;8.73;6.90;;;12.60;99.90;;;;;;5045066;28;20049;-41
2022/11/15 09:35:38;;;;;;;8.98;7.93;;;12.60;99.90;;;;;;5045250;28;20047;-41
2022/11/15 09:38:04;;;;;;;9.75;7.50;;;12.50;99.90;;;;;;5045822;28;20459;-40
2022/11/15 09:40:31;;;;;;;9.35;6.70;;;12.50;99.90;;;;;;5045943;28;20460;-41
2022/11/15 09:43:03;;;;;;;6.32;5.70;;;12.50;99.90;;;;;;5044693;28;20128;-41
2022/11/15 09:45:37;;;;;;;8.68;7.03;;;12.60;99.90;;;;;;5043940;28;20032;-40
2022/11/15 09:48:32;;;;;;;8.23;6.32;;;12.60;99.90;;;;;;5046473;28;20052;-39
2022/11/15 09:51:01;;;;;;;8.82;5.82;;;12.60;99.90;;;;;;5042523;28;20103;-40
2022/11/15 09:53:49;;;;;;;7.32;6.45;;;12.70;99.90;;;;;;5044683;28;20037;-40
2022/11/15 09:56:23;;;;;;;7.13;5.90;;;12.70;99.90;;;;;;5042842;28;20520;-38
2022/11/15 09:58:54;;;;;;;6.63;5.72;;;12.80;99.90;;;;;;5043092;28;20043;-41
2022/11/15 10:01:54;;;;;;;7.65;5.05;;;12.80;99.90;;;;;;5044590;28;20051;-40
2022/11/15 10:04:22;;;;;;;7.20;5.55;;;12.90;99.90;;;;;;5044289;28;20059;-41
2022/11/15 10:07:19;;;;;;;6.03;5.50;;;13.00;99.90;;;;;;5044682;28;20013;-41
2022/11/15 10:09:50;;;;;;;5.90;4.88;;;13.00;99.90;;;;;;5040413;28;20029;-40
2022/11/15 10:12:17;;;;;;;8.60;5.57;;;13.00;99.90;;;;;;5044108;28;20112;-40
2022/11/15 10:14:43;;;;;;;4.93;4.47;;;13.00;99.90;;;;;;5044663;28;20067;-41
2022/11/15 10:17:17;;;;;;;6.68;4.75;;;13.00;99.90;;;;;;5043060;28;20017;-40
2022/11/15 10:20:22;;;;;;;4.72;4.00;;;13.00;99.90;;;;;;5044916;28;20067;-38
2022/11/15 10:22:54;;;;;;;6.88;4.50;;;13.00;99.90;;;;;;5049590;28;20041;-41
2022/11/15 10:25:31;;;;;;;4.40;3.92;;;13.00;99.90;;;;;;5055285;28;20036;-40
2022/11/15 10:28:00;;;;;;;5.13;4.35;;;13.00;99.90;;;;;;5043978;28;20036;-40
2022/11/15 10:30:41;;;;;;;5.45;4.30;;;13.00;99.90;;;;;;5043499;28;20059;-42
2022/11/15 10:33:31;;;;;;;4.20;3.80;;;13.00;99.90;;;;;;5043415;28;20052;-41
2022/11/15 10:36:09;;;;;;;4.82;4.32;;;13.00;99.90;;;;;;5043705;28;20033;-40
2022/11/15 10:38:53;;;;;;;7.53;3.97;;;13.00;99.90;;;;;;5044063;28;20021;-41
2022/11/15 10:41:31;;;;;;;4.57;3.40;;;13.00;99.90;;;;;;5044171;28;20029;-40
2022/11/15 10:44:17;;;;;;;3.92;3.00;;;13.10;99.90;;;;;;5043723;28;20637;-41
2022/11/15 10:46:48;;;;;;;4.10;2.70;;;13.00;99.90;;;;;;5042866;28;20025;-41
2022/11/15 10:49:29;;;;;;;2.78;2.53;;;13.00;99.90;;;;;;5043369;28;20052;-37
2022/11/15 10:52:00;;;;;;;3.58;3.03;;;13.00;99.90;;;;;;5043120;28;20032;-38
2022/11/15 10:54:36;;;;;;;4.38;2.60;;;13.00;99.90;;;;;;5043251;28;20024;-41
2022/11/15 10:57:13;;;;;;;2.40;2.08;;;13.00;99.90;;;;;;5043582;28;20029;-39
2022/11/15 10:59:47;;;;;;;2.92;2.50;;;13.00;99.90;;;;;;5043451;28;20021;-40
2022/11/15 11:02:41;;;;;;;2.65;2.45;;;13.00;99.90;;;;;;5043286;28;20044;-41
2022/11/15 11:05:33;;;;;;;2.70;2.35;;;13.00;99.90;;;;;;5024045;28;20033;-41
2022/11/15 11:08:03;;;;;;;3.92;2.60;;;13.00;99.90;;;;;;5042910;28;20028;-39
2022/11/15 11:10:29;;;;;;;3.22;1.90;;;12.90;99.90;;;;;;5044679;28;20025;-41
2022/11/15 11:12:54;;;;;;;2.58;2.30;;;12.90;99.90;;;;;;5043411;28;20044;-40
2022/11/15 11:15:26;;;;;;;2.00;1.80;;;12.90;99.90;;;;;;5043302;28;20021;-39
2022/11/15 11:17:58;;;;;;;2.42;1.88;;;12.90;99.90;;;;;;5042931;28;20025;-41
2022/11/15 11:20:36;;;;;;;3.90;2.00;;;13.00;99.90;;;;;;5042924;28;20028;-39
2022/11/15 11:23:36;;;;;;;1.92;1.75;;;13.00;99.90;;;;;;5043308;28;20068;-41
2022/11/15 11:26:38;;;;;;;3.78;2.10;;;13.00;99.90;;;;;;5023472;28;20044;-40
2022/11/15 11:29:19;;;;;;;2.25;1.63;;;12.90;99.90;;;;;;5039157;28;20048;-39
2022/11/15 11:31:57;;;;;;;3.92;1.73;;;12.90;99.90;;;;;;5042824;28;20025;-40
2022/11/15 11:34:53;;;;;;;3.40;1.55;;;12.90;99.90;;;;;;5041133;28;20122;-38
2022/11/15 11:37:44;;;;;;;5.60;1.85;;;12.90;99.90;;;;;;5042716;28;20095;-40
2022/11/15 11:40:29;;;;;;;2.38;1.45;;;12.90;99.90;;;;;;5034773;28;20075;-40
2022/11/15 11:43:15;;;;;;;1.60;1.40;;;12.90;99.90;;;;;;5041737;28;20036;-40
2022/11/15 11:46:03;;;;;;;2.08;1.13;;;12.90;99.90;;;;;;5043003;28;20021;-39
2022/11/15 11:48:40;;;;;;;2.45;1.13;;;12.90;99.90;;;;;;5042511;28;20116;-40
2022/11/15 11:51:20;;;;;;;4.72;1.75;;;12.90;99.90;;;;;;5042601;28;20138;-40
2022/11/15 11:53:49;;;;;;;2.17;1.20;;;12.90;99.90;;;;;;5042944;28;20041;-39
2022/11/15 11:56:24;;;;;;;3.50;1.50;;;12.90;99.90;;;;;;5041705;28;20499;-40
2022/11/15 11:58:57;;;;;;;2.13;1.35;;;12.80;99.90;;;;;;5042526;28;20033;-41
2022/11/15 12:01:36;;;;;;;3.35;1.20;;;12.90;99.90;;;;;;5042646;28;20079;-40
2022/11/15 12:04:38;;;;;;;3.13;1.20;;;12.90;99.90;;;;;;5041686;28;20039;-40
2022/11/15 12:07:15;;;;;;;1.80;1.27;;;12.90;99.90;;;;;;5021960;28;20044;-40
2022/11/15 12:09:55;;;;;;;2.00;1.00;;;12.90;99.90;;;;;;5037820;28;20090;-40
2022/11/15 12:12:55;;;;;;;2.63;1.42;;;13.00;99.90;;;;;;5022822;28;20045;-40
2022/11/15 12:15:43;;;;;;;3.05;1.85;;;13.00;99.90;;;;;;5042275;28;20498;-40
2022/11/15 12:18:14;;;;;;;2.75;1.40;;;13.00;99.90;;;;;;5041822;28;20025;-39
2022/11/15 12:20:51;;;;;;;3.78;1.10;;;13.10;99.90;;;;;;5042262;28;20137;-39
2022/11/15 12:23:22;;;;;;;3.15;1.08;;;13.10;99.90;;;;;;5042227;28;20879;-38
2022/11/15 12:25:53;;;;;;;2.30;1.15;;;13.10;99.90;;;;;;5041004;28;20029;-39
2022/11/15 12:28:37;;;;;;;2.33;1.38;;;13.10;99.90;;;;;;5042619;28;20025;-40
2022/11/15 12:31:41;;;;;;;3.45;1.20;;;13.10;99.90;;;;;;5041227;28;20793;-39
2022/11/15 12:34:13;;;;;;;4.22;1.20;;;13.10;99.90;;;;;;5042607;28;20048;-40
2022/11/15 12:36:42;;;;;;;2.47;1.15;;;13.10;99.90;;;;;;5042799;28;20028;-37
2022/11/15 12:39:12;;;;;;;1.77;0.80;;;13.10;99.90;;;;;;5041860;28;20032;-41
2022/11/15 12:41:39;;;;;;;1.90;1.17;;;13.10;99.90;;;;;;5043328;28;20032;-39
2022/11/15 12:44:28;;;;;;;2.22;1.27;;;13.10;99.90;;;;;;5043115;28;20028;-41
2022/11/15 12:46:54;;;;;;;2.60;1.20;;;13.10;99.90;;;;;;5041031;28;20480;-41
2022/11/15 12:49:28;;;;;;;1.92;1.10;;;13.10;99.90;;;;;;5042732;28;20029;-40
2022/11/15 12:51:56;;;;;;;1.88;0.90;;;13.10;99.90;;;;;;5039206;28;20029;-39
2022/11/15 12:54:22;;;;;;;1.92;0.90;;;13.10;99.90;;;;;;5045477;28;20140;-39
2022/11/15 12:57:06;;;;;;;3.00;0.90;;;13.10;99.90;;;;;;5045095;28;20023;-37
2022/11/15 12:59:50;;;;;;;1.77;1.00;;;13.10;99.90;;;;;;5045424;28;20021;-40
2022/11/15 13:02:32;;;;;;;3.35;1.10;;;13.10;99.90;;;;;;5046249;28;20079;-40
2022/11/15 13:05:19;;;;;;;2.88;0.93;;;13.10;99.90;;;;;;5046254;28;20025;-39
2022/11/15 13:07:44;;;;;;;2.88;0.90;;;13.10;99.90;;;;;;5045887;28;20116;-39
2022/11/15 13:13:11;;;;;;;2.17;0.70;;;13.20;99.90;;;;;;5039972;28;20132;-41
2022/11/15 13:15:58;;;;;;;1.35;0.70;;;13.20;99.90;;;;;;5046582;28;20025;-40